createdAt,value
2018-03-21T00:01:16.130Z,18.17
2018-03-21T00:03:44.667Z,18.33
2018-03-21T00:06:12.440Z,17.23
2018-03-21T00:08:40.269Z,17.63
2018-03-21T00:11:07.956Z,16.10
2018-03-21T00:13:35.659Z,15.03
2018-03-21T00:16:04.109Z,14.07
2018-03-21T00:18:31.788Z,14.77
2018-03-21T00:20:59.439Z,17.87
2018-03-21T00:23:27.119Z,14.07
2018-03-21T00:25:54.758Z,13.73
2018-03-21T00:28:22.440Z,12.93
2018-03-21T00:30:50.866Z,13.97
2018-03-21T00:33:18.510Z,15.17
2018-03-21T00:35:46.172Z,12.00
2018-03-21T00:38:13.838Z,13.43
2018-03-21T00:40:41.505Z,16.20
2018-03-21T00:43:09.167Z,12.97
2018-03-21T00:45:36.939Z,17.30
2018-03-21T00:48:04.626Z,13.30
2018-03-21T00:50:32.299Z,17.07
2018-03-21T00:52:59.973Z,17.13
2018-03-21T00:55:28.383Z,15.27
2018-03-21T00:57:56.047Z,18.57
2018-03-21T01:00:23.861Z,16.43
2018-03-21T01:02:51.579Z,17.13
2018-03-21T01:05:19.273Z,15.93
2018-03-21T01:07:46.931Z,18.23
2018-03-21T01:10:14.622Z,16.57
2018-03-21T01:12:43.059Z,16.07
2018-03-21T01:15:10.744Z,16.20
2018-03-21T01:17:38.790Z,16.80
2018-03-21T01:20:06.502Z,15.83
2018-03-21T01:22:34.920Z,13.20
2018-03-21T01:25:02.594Z,11.77
2018-03-21T01:27:30.262Z,12.10
2018-03-21T01:29:57.922Z,10.50
2018-03-21T01:32:25.580Z,9.73
2018-03-21T01:34:53.249Z,9.13
2018-03-21T01:37:20.974Z,7.90
2018-03-21T01:39:48.640Z,7.70
2018-03-21T01:42:16.343Z,9.73
2018-03-21T01:44:44.044Z,7.67
2018-03-21T01:47:11.837Z,7.77
2018-03-21T01:49:39.546Z,8.57
2018-03-21T01:52:07.952Z,6.20
2018-03-21T01:54:35.648Z,6.90
2018-03-21T01:57:03.324Z,9.17
2018-03-21T01:59:30.970Z,8.00
2018-03-21T02:01:58.620Z,8.80
2018-03-21T02:04:26.452Z,10.03
2018-03-21T02:06:54.147Z,8.00
2018-03-21T02:09:21.811Z,9.10
2018-03-21T02:11:49.479Z,17.10
2018-03-21T02:14:17.167Z,10.13
2018-03-21T02:16:44.815Z,8.40
2018-03-21T02:19:12.471Z,9.10
2018-03-21T02:21:40.140Z,9.30
2018-03-21T02:24:07.947Z,8.80
2018-03-21T02:26:35.615Z,9.03
2018-03-21T02:29:03.306Z,9.37
2018-03-21T02:31:30.996Z,8.73
2018-03-21T02:33:59.520Z,9.43
2018-03-21T02:36:27.257Z,10.53
2018-03-21T02:38:55.124Z,10.57
2018-03-21T02:41:22.870Z,10.23
2018-03-21T02:43:51.380Z,8.20
2018-03-21T02:46:19.148Z,9.30
2018-03-21T02:48:46.936Z,10.60
2018-03-21T02:51:14.703Z,10.20
2018-03-21T02:53:42.475Z,9.27
2018-03-21T02:56:11.169Z,10.03
2018-03-21T02:58:39.692Z,9.10
2018-03-21T03:01:07.531Z,9.80
2018-03-21T03:03:35.287Z,10.33
2018-03-21T03:06:03.865Z,11.43
2018-03-21T03:08:32.364Z,11.50
2018-03-21T03:11:00.149Z,11.63
2018-03-21T03:13:27.893Z,11.00
2018-03-21T03:15:55.629Z,10.83
2018-03-21T03:18:23.409Z,10.77
2018-03-21T03:20:51.926Z,11.97
2018-03-21T03:23:19.670Z,11.20
2018-03-21T03:25:48.193Z,11.07
2018-03-21T03:28:15.925Z,10.40
2018-03-21T03:30:43.770Z,10.80
2018-03-21T03:33:11.563Z,10.83
2018-03-21T03:35:39.323Z,13.03
2018-03-21T03:38:07.161Z,13.57
2018-03-21T03:40:34.902Z,13.70
2018-03-21T03:43:03.462Z,13.27
2018-03-21T03:45:31.244Z,13.93
2018-03-21T03:47:59.811Z,14.10
2018-03-21T03:50:27.570Z,13.47
2018-03-21T03:52:55.360Z,12.00
2018-03-21T03:55:23.917Z,13.00
2018-03-21T03:57:51.700Z,13.53
2018-03-21T04:00:20.201Z,15.47
2018-03-21T04:02:47.948Z,13.70
2018-03-21T04:05:16.529Z,13.20
2018-03-21T04:07:45.037Z,13.83
2018-03-21T04:10:12.812Z,12.57
2018-03-21T04:12:40.557Z,13.93
2018-03-21T04:15:08.336Z,15.43
2018-03-21T04:17:36.100Z,16.40
2018-03-21T04:20:03.908Z,14.67
2018-03-21T04:22:31.682Z,17.67
2018-03-21T04:25:00.213Z,18.33
2018-03-21T04:27:27.973Z,16.27
2018-03-21T04:29:55.744Z,17.50
2018-03-21T04:32:23.535Z,19.40
2018-03-21T04:34:51.301Z,19.43
2018-03-21T04:37:19.077Z,22.93
2018-03-21T04:39:46.826Z,20.93
2018-03-21T04:42:14.576Z,23.97
2018-03-21T04:44:42.413Z,29.43
2018-03-21T04:47:10.237Z,20.37
2018-03-21T04:49:38.786Z,22.93
2018-03-21T04:52:06.599Z,22.70
2018-03-21T04:54:34.382Z,22.40
2018-03-21T04:57:02.152Z,23.83
2018-03-21T04:59:29.948Z,21.43
2018-03-21T05:01:57.707Z,26.00
2018-03-21T05:04:25.505Z,25.23
2018-03-21T05:06:53.325Z,26.90
2018-03-21T05:09:21.069Z,23.57
2018-03-21T05:11:48.836Z,27.97
2018-03-21T05:14:16.576Z,21.87
2018-03-21T05:16:44.386Z,21.17
2018-03-21T05:19:12.186Z,26.17
2018-03-21T05:21:40.688Z,25.60
2018-03-21T05:24:08.460Z,25.03
2018-03-21T05:26:36.208Z,29.13
2018-03-21T05:29:04.034Z,25.10
2018-03-21T05:31:31.883Z,25.20
2018-03-21T05:33:59.648Z,26.23
2018-03-21T05:36:27.403Z,24.37
2018-03-21T05:38:55.159Z,26.13
2018-03-21T05:41:23.001Z,26.27
2018-03-21T05:43:50.806Z,28.27
2018-03-21T05:46:18.651Z,21.77
2018-03-21T05:48:46.402Z,24.33
2018-03-21T05:51:14.165Z,27.27
2018-03-21T05:53:41.929Z,24.07
2018-03-21T05:56:09.741Z,23.77
2018-03-21T05:58:37.481Z,25.53
2018-03-21T06:01:05.242Z,21.60
2018-03-21T06:03:33.004Z,26.70
2018-03-21T06:06:00.740Z,25.93
2018-03-21T06:08:28.532Z,23.53
2018-03-21T06:10:56.317Z,24.63
2018-03-21T06:13:24.860Z,26.60
2018-03-21T06:15:52.600Z,25.33
2018-03-21T06:18:20.414Z,23.90
2018-03-21T06:20:48.176Z,25.40
2018-03-21T06:23:15.972Z,27.23
2018-03-21T06:25:44.500Z,25.30
2018-03-21T06:28:12.254Z,26.60
2018-03-21T06:30:40.015Z,26.10
2018-03-21T06:33:07.770Z,27.77
2018-03-21T06:35:35.565Z,24.80
2018-03-21T06:38:03.431Z,23.87
2018-03-21T06:40:31.166Z,27.67
2018-03-21T06:42:58.916Z,23.67
2018-03-21T06:45:26.657Z,27.27
2018-03-21T06:47:55.195Z,28.97
2018-03-21T06:50:22.979Z,31.30
2018-03-21T06:52:50.721Z,27.77
2018-03-21T06:55:18.488Z,28.38
2018-03-21T06:57:46.250Z,30.77
2018-03-21T07:00:14.018Z,25.23
2018-03-21T07:02:41.777Z,27.50
2018-03-21T07:05:09.524Z,31.30
2018-03-21T07:07:37.302Z,31.00
2018-03-21T07:10:05.092Z,26.43
2018-03-21T07:12:33.593Z,24.60
2018-03-21T07:15:14.023Z,27.20
2018-03-21T07:17:41.792Z,27.43
2018-03-21T07:20:10.314Z,37.90
2018-03-21T07:22:38.108Z,32.33
2018-03-21T07:25:05.919Z,26.77
2018-03-21T07:27:34.420Z,29.00
2018-03-21T07:30:02.196Z,26.10
2018-03-21T07:32:30.085Z,26.60
2018-03-21T07:34:57.904Z,24.87
2018-03-21T07:37:25.609Z,29.43
2018-03-21T07:39:53.291Z,24.17
2018-03-21T07:42:20.987Z,28.97
2018-03-21T07:44:48.710Z,28.33
2018-03-21T07:47:16.414Z,31.10
2018-03-21T07:49:44.830Z,26.97
2018-03-21T07:52:12.501Z,28.13
2018-03-21T07:54:40.195Z,28.07
2018-03-21T07:57:07.845Z,30.87
2018-03-21T07:59:35.518Z,28.77
2018-03-21T08:02:04.015Z,28.90
2018-03-21T08:04:32.539Z,26.27
2018-03-21T08:07:00.264Z,29.63
2018-03-21T08:12:02.682Z,28.50
2018-03-21T08:14:30.371Z,28.60
2018-03-21T08:16:58.932Z,24.33
2018-03-21T08:19:26.760Z,26.87
2018-03-21T08:21:54.646Z,23.40
2018-03-21T08:24:22.405Z,26.50
2018-03-21T08:26:50.192Z,24.47
2018-03-21T08:29:17.959Z,28.10
2018-03-21T08:31:46.546Z,30.17
2018-03-21T08:34:14.292Z,29.70
2018-03-21T08:36:42.068Z,27.80
2018-03-21T08:39:09.828Z,25.60
2018-03-21T08:41:37.588Z,20.47
2018-03-21T08:44:05.352Z,21.13
2018-03-21T08:46:33.148Z,22.53
2018-03-21T08:49:01.698Z,18.73
2018-03-21T08:51:29.535Z,19.67
2018-03-21T08:53:57.350Z,20.23
2018-03-21T08:56:25.891Z,19.70
2018-03-21T08:58:53.635Z,18.97
2018-03-21T09:01:21.378Z,17.77
2018-03-21T09:03:49.057Z,21.57
2018-03-21T09:06:16.739Z,21.43
2018-03-21T09:08:44.426Z,23.53
2018-03-21T09:11:12.152Z,18.97
2018-03-21T09:13:39.807Z,21.23
2018-03-21T09:16:07.482Z,19.00
2018-03-21T09:18:35.201Z,20.40
2018-03-21T09:21:03.637Z,18.97
2018-03-21T09:23:31.351Z,16.77
2018-03-21T09:25:59.767Z,13.80
2018-03-21T09:28:27.465Z,19.77
2018-03-21T09:30:55.134Z,15.77
2018-03-21T09:33:23.590Z,17.43
2018-03-21T09:35:51.289Z,21.47
2018-03-21T09:38:19.712Z,18.43
2018-03-21T09:40:47.386Z,18.07
2018-03-21T09:43:15.051Z,15.70
2018-03-21T09:45:42.723Z,18.97
2018-03-21T09:48:10.426Z,17.30
2018-03-21T09:50:38.126Z,19.57
2018-03-21T09:53:05.792Z,17.37
2018-03-21T09:55:33.476Z,16.20
2018-03-21T09:58:07.408Z,14.17
2018-03-21T10:00:35.841Z,23.40
2018-03-21T10:03:03.528Z,20.70
2018-03-21T10:05:31.961Z,21.07
2018-03-21T10:07:59.627Z,19.03
2018-03-21T10:10:31.978Z,15.17
2018-03-21T10:12:59.929Z,13.10
2018-03-21T10:15:27.651Z,18.40
2018-03-21T10:17:55.478Z,13.07
2018-03-21T10:20:24.433Z,15.27
2018-03-21T10:22:52.987Z,14.27
2018-03-21T10:25:20.762Z,15.30
2018-03-21T10:27:48.558Z,15.43
2018-03-21T10:30:16.327Z,14.87
2018-03-21T10:32:43.976Z,16.17
2018-03-21T10:35:11.762Z,12.50
2018-03-21T10:37:39.434Z,14.93
2018-03-21T10:40:07.140Z,11.27
2018-03-21T10:42:35.560Z,12.77
2018-03-21T10:45:03.430Z,14.70
2018-03-21T10:47:31.857Z,13.67
2018-03-21T10:49:59.561Z,12.80
2018-03-21T10:52:38.777Z,14.30
2018-03-21T10:54:55.719Z,13.47
2018-03-21T10:57:23.390Z,13.40
2018-03-21T10:59:51.040Z,15.23
2018-03-21T11:02:18.831Z,15.60
2018-03-21T11:04:46.524Z,12.27
2018-03-21T11:07:14.963Z,16.03
2018-03-21T11:09:42.691Z,13.47
2018-03-21T11:12:10.402Z,13.70
2018-03-21T11:14:38.100Z,16.50
2018-03-21T11:17:05.845Z,12.60
2018-03-21T11:19:34.285Z,16.63
2018-03-21T11:22:01.971Z,13.37
2018-03-21T11:24:29.647Z,10.90
2018-03-21T11:26:58.098Z,13.63
2018-03-21T11:29:25.802Z,12.83
2018-03-21T11:31:53.500Z,11.03
2018-03-21T11:34:21.227Z,10.80
2018-03-21T11:36:48.926Z,12.90
2018-03-21T11:39:16.631Z,10.70
2018-03-21T11:41:45.084Z,12.20
2018-03-21T11:44:12.816Z,10.70
2018-03-21T11:46:40.527Z,14.10
2018-03-21T11:49:08.986Z,12.53
2018-03-21T11:51:36.711Z,10.63
2018-03-21T11:54:04.434Z,11.27
2018-03-21T11:56:32.866Z,11.37
2018-03-21T11:59:00.530Z,11.27
2018-03-21T12:01:28.208Z,12.70
2018-03-21T12:03:55.913Z,12.03
2018-03-21T12:06:24.351Z,12.07
2018-03-21T12:08:52.325Z,13.83
2018-03-21T12:11:20.014Z,12.70
2018-03-21T12:13:48.479Z,11.27
2018-03-21T12:16:17.006Z,13.40
2018-03-21T12:18:44.672Z,9.83
2018-03-21T12:21:12.325Z,15.03
2018-03-21T12:23:40.026Z,20.63
2018-03-21T12:26:07.737Z,12.17
2018-03-21T12:28:35.398Z,12.10
2018-03-21T12:31:03.095Z,11.23
2018-03-21T12:33:30.759Z,11.17
2018-03-21T12:35:58.429Z,12.17
2018-03-21T12:38:26.122Z,10.77
2018-03-21T12:40:54.594Z,12.33
2018-03-21T12:43:23.087Z,15.13
2018-03-21T12:45:59.317Z,13.73
2018-03-21T12:48:30.561Z,16.97
2018-03-21T12:51:02.626Z,14.43
2018-03-21T12:53:30.289Z,14.30
2018-03-21T12:55:58.104Z,13.87
2018-03-21T12:58:26.396Z,13.90
2018-03-21T13:00:54.073Z,13.50
2018-03-21T13:03:21.753Z,10.97
2018-03-21T13:05:49.400Z,11.20
2018-03-21T13:08:17.071Z,9.77
2018-03-21T13:10:44.759Z,12.00
2018-03-21T13:13:13.333Z,12.13
2018-03-21T13:15:41.925Z,13.23
2018-03-21T13:18:09.754Z,11.53
2018-03-21T13:20:37.624Z,13.90
2018-03-21T13:23:06.277Z,14.73
2018-03-21T13:25:34.134Z,39.20
2018-03-21T13:28:01.957Z,14.50
2018-03-21T13:30:30.644Z,17.17
2018-03-21T13:32:58.524Z,11.47
2018-03-21T13:35:26.391Z,11.83
2018-03-21T13:37:54.220Z,10.57
2018-03-21T13:40:23.820Z,13.00
2018-03-21T13:42:51.665Z,9.67
2018-03-21T13:45:19.477Z,10.30
2018-03-21T13:47:47.406Z,10.67
2018-03-21T13:50:15.333Z,14.10
2018-03-21T13:52:54.122Z,14.77
2018-03-21T13:55:22.011Z,14.87
2018-03-21T13:57:49.914Z,9.87
2018-03-21T14:00:18.607Z,15.30
2018-03-21T14:02:46.571Z,12.53
2018-03-21T14:05:14.433Z,13.80
2018-03-21T14:07:42.283Z,14.80
2018-03-21T14:10:10.113Z,14.57
2018-03-21T14:12:37.981Z,14.67
2018-03-21T14:15:05.920Z,13.80
2018-03-21T14:17:34.515Z,13.83
2018-03-21T14:20:03.252Z,13.93
2018-03-21T14:22:31.107Z,16.47
2018-03-21T14:24:59.050Z,12.00
2018-03-21T14:27:26.887Z,20.33
2018-03-21T14:29:55.545Z,16.80
2018-03-21T14:32:23.486Z,14.50
2018-03-21T14:34:51.354Z,12.80
2018-03-21T14:37:19.196Z,14.40
2018-03-21T14:39:47.037Z,13.47
2018-03-21T14:42:15.648Z,12.90
2018-03-21T14:44:43.538Z,12.37
2018-03-21T14:47:11.387Z,11.93
2018-03-21T14:49:39.243Z,9.80
2018-03-21T14:52:07.206Z,11.60
2018-03-21T14:54:35.166Z,11.50
2018-03-21T14:57:02.983Z,16.30
2018-03-21T14:59:30.856Z,15.23
2018-03-21T15:01:58.755Z,14.83
2018-03-21T15:04:26.639Z,14.70
2018-03-21T15:06:54.528Z,11.80
2018-03-21T15:09:22.382Z,11.40
2018-03-21T15:11:50.239Z,12.23
2018-03-21T15:14:18.132Z,11.80
2018-03-21T15:16:46.012Z,13.13
2018-03-21T15:19:13.913Z,15.00
2018-03-21T15:21:42.576Z,12.87
2018-03-21T15:24:10.445Z,15.17
2018-03-21T15:26:38.347Z,15.83
2018-03-21T15:29:06.220Z,12.63
2018-03-21T15:31:34.088Z,17.90
2018-03-21T15:34:02.664Z,12.23
2018-03-21T15:36:31.024Z,13.90
2018-03-21T15:38:59.623Z,16.93
2018-03-21T15:41:27.480Z,17.23
2018-03-21T15:43:55.294Z,14.30
2018-03-21T15:46:23.185Z,14.73
2018-03-21T15:48:51.844Z,14.77
2018-03-21T15:51:19.739Z,14.73
2018-03-21T15:53:48.352Z,11.67
2018-03-21T15:56:16.241Z,12.37
2018-03-21T15:58:44.084Z,14.10
2018-03-21T16:01:11.969Z,15.43
2018-03-21T16:03:39.886Z,16.50
2018-03-21T16:06:08.516Z,11.10
2018-03-21T16:08:37.136Z,12.33
2018-03-21T16:11:05.030Z,14.47
2018-03-21T16:13:33.625Z,16.03
2018-03-21T16:16:01.437Z,12.47
2018-03-21T16:18:29.774Z,13.57
2018-03-21T16:20:57.631Z,13.00
2018-03-21T16:23:25.480Z,15.60
2018-03-21T16:25:54.073Z,12.00
2018-03-21T16:28:21.942Z,11.70
2018-03-21T16:30:49.781Z,15.37
2018-03-21T16:33:18.569Z,15.43
2018-03-21T16:35:47.193Z,14.60
2018-03-21T16:38:15.031Z,17.00
2018-03-21T16:40:42.899Z,13.20
2018-03-21T16:43:10.799Z,14.37
2018-03-21T16:45:38.636Z,12.70
2018-03-21T16:48:06.444Z,17.37
2018-03-21T16:50:34.305Z,16.67
2018-03-21T16:53:02.140Z,12.77
2018-03-21T16:55:30.090Z,14.43
2018-03-21T16:57:57.940Z,15.53
2018-03-21T17:00:25.808Z,12.47
2018-03-21T17:02:54.393Z,14.50
2018-03-21T17:05:23.060Z,16.20
2018-03-21T17:07:50.970Z,13.77
2018-03-21T17:10:18.950Z,14.47
2018-03-21T17:12:47.540Z,12.83
2018-03-21T17:15:15.392Z,11.43
2018-03-21T17:17:43.315Z,14.80
2018-03-21T17:20:11.994Z,16.73
2018-03-21T17:22:39.907Z,13.47
2018-03-21T17:25:07.773Z,10.17
2018-03-21T17:27:35.919Z,21.83
2018-03-21T17:30:04.604Z,17.37
2018-03-21T17:32:34.825Z,20.17
2018-03-21T17:35:06.081Z,12.20
2018-03-21T17:37:34.999Z,17.23
2018-03-21T17:40:03.446Z,15.73
2018-03-21T17:42:31.469Z,15.20
2018-03-21T17:44:59.516Z,15.63
2018-03-21T17:47:27.364Z,13.97
2018-03-21T17:49:55.279Z,11.30
2018-03-21T17:52:24.405Z,13.50
2018-03-21T17:54:52.380Z,17.20
2018-03-21T17:57:20.614Z,14.50
2018-03-21T17:59:48.502Z,13.30
2018-03-21T18:02:17.306Z,14.00
2018-03-21T18:04:45.270Z,11.93
2018-03-21T18:07:13.214Z,11.07
2018-03-21T18:09:41.845Z,13.90
2018-03-21T18:12:10.972Z,13.03
2018-03-21T18:14:39.526Z,14.03
2018-03-21T18:17:07.403Z,12.60
2018-03-21T18:19:35.271Z,13.17
2018-03-21T18:22:03.338Z,16.10
2018-03-21T18:24:31.280Z,24.10
2018-03-21T18:26:59.183Z,14.10
2018-03-21T18:29:27.063Z,15.67
2018-03-21T18:31:54.957Z,14.77
2018-03-21T18:34:24.404Z,16.83
2018-03-21T18:36:52.221Z,12.87
2018-03-21T18:39:20.991Z,19.73
2018-03-21T18:41:49.711Z,21.77
2018-03-21T18:44:17.576Z,20.00
2018-03-21T18:46:45.440Z,18.60
2018-03-21T18:49:13.379Z,15.03
2018-03-21T18:51:41.539Z,16.07
2018-03-21T18:54:10.226Z,14.73
2018-03-21T18:56:39.042Z,14.23
2018-03-21T18:59:06.967Z,18.23
2018-03-21T19:01:34.800Z,27.03
2018-03-21T19:04:02.803Z,16.20
2018-03-21T19:06:30.629Z,14.60
2018-03-21T19:08:58.638Z,16.87
2018-03-21T19:11:26.487Z,15.33
2018-03-21T19:13:54.333Z,20.80
2018-03-21T19:16:22.229Z,15.07
2018-03-21T19:18:49.976Z,24.60
2018-03-21T19:21:17.675Z,15.23
2018-03-21T19:23:45.416Z,15.07
2018-03-21T19:26:13.463Z,18.80
2018-03-21T19:28:41.863Z,18.20
2018-03-21T19:31:09.861Z,16.63
2018-03-21T19:33:38.379Z,16.00
2018-03-21T19:36:06.319Z,18.53
2018-03-21T19:38:34.847Z,17.20
2018-03-21T19:41:02.643Z,16.43
2018-03-21T19:43:30.421Z,15.50
2018-03-21T19:45:58.964Z,16.93
2018-03-21T19:48:26.741Z,14.73
2018-03-21T19:50:54.501Z,14.57
2018-03-21T19:53:22.250Z,22.73
2018-03-21T19:55:49.998Z,19.27
2018-03-21T19:58:17.797Z,16.60
2018-03-21T20:00:45.649Z,14.97
2018-03-21T20:03:13.410Z,19.20
2018-03-21T20:05:41.233Z,14.60
2018-03-21T20:08:09.063Z,12.27
2018-03-21T20:10:37.623Z,14.07
2018-03-21T20:13:07.584Z,15.37
2018-03-21T20:15:35.405Z,15.20
2018-03-21T20:18:03.292Z,15.33
2018-03-21T20:20:33.907Z,14.47
2018-03-21T20:23:02.261Z,19.40
2018-03-21T20:25:30.137Z,14.80
2018-03-21T20:27:58.025Z,18.23
2018-03-21T20:30:26.035Z,15.10
2018-03-21T20:32:53.864Z,16.03
2018-03-21T20:35:22.402Z,17.60
2018-03-21T20:37:50.518Z,15.73
2018-03-21T20:40:19.159Z,13.07
2018-03-21T20:42:47.170Z,16.80
2018-03-21T20:45:15.864Z,13.30
2018-03-21T20:47:44.421Z,16.13
2018-03-21T20:50:12.237Z,15.57
2018-03-21T20:52:42.318Z,12.83
2018-03-21T20:55:11.214Z,16.23
2018-03-21T20:57:39.751Z,14.83
2018-03-21T21:00:09.381Z,17.13
2018-03-21T21:02:37.994Z,14.97
2018-03-21T21:05:05.893Z,14.80
2018-03-21T21:07:36.941Z,14.40
2018-03-21T21:10:05.544Z,17.57
2018-03-21T21:12:33.405Z,16.03
2018-03-21T21:15:02.121Z,16.93
2018-03-21T21:17:30.716Z,16.47
2018-03-21T21:19:59.223Z,14.73
2018-03-21T21:22:26.981Z,15.53
2018-03-21T21:24:54.784Z,15.80
2018-03-21T21:27:22.644Z,18.33
2018-03-21T21:29:50.421Z,19.20
2018-03-21T21:32:18.283Z,19.03
2018-03-21T21:34:46.045Z,20.23
2018-03-21T21:37:13.804Z,17.87
2018-03-21T21:39:41.558Z,16.30
2018-03-21T21:42:09.336Z,14.07
2018-03-21T21:44:37.085Z,13.83
2018-03-21T21:47:04.868Z,15.13
2018-03-21T21:49:32.636Z,14.17
2018-03-21T21:52:00.307Z,20.37
2018-03-21T21:54:28.127Z,15.70
2018-03-21T21:56:55.991Z,16.30
2018-03-21T21:59:23.805Z,14.13
2018-03-21T22:01:51.597Z,11.00
2018-03-21T22:04:19.381Z,15.20
2018-03-21T22:06:47.152Z,17.37
2018-03-21T22:09:14.935Z,11.73
2018-03-21T22:11:42.724Z,14.93
2018-03-21T22:14:10.558Z,14.83
2018-03-21T22:16:38.323Z,12.87
2018-03-21T22:19:06.092Z,14.33
2018-03-21T22:21:33.904Z,12.20
2018-03-21T22:24:01.692Z,16.07
2018-03-21T22:26:29.466Z,13.63
2018-03-21T22:28:57.236Z,14.37
2018-03-21T22:31:25.030Z,12.10
2018-03-21T22:33:53.578Z,10.67
2018-03-21T22:36:21.299Z,15.50
2018-03-21T22:38:49.025Z,12.40
2018-03-21T22:41:16.717Z,11.73
2018-03-21T22:43:44.405Z,11.20
2018-03-21T22:46:12.202Z,13.97
2018-03-21T22:48:39.884Z,13.20
2018-03-21T22:51:08.377Z,14.53
2018-03-21T22:53:36.814Z,10.73
2018-03-21T22:56:04.622Z,17.93
2018-03-21T22:58:32.331Z,16.17
2018-03-21T23:01:00.044Z,15.63
2018-03-21T23:03:28.015Z,14.00
2018-03-21T23:05:55.783Z,11.27
2018-03-21T23:08:23.536Z,15.23
2018-03-21T23:10:51.332Z,13.53
2018-03-21T23:13:19.064Z,12.47
2018-03-21T23:15:46.847Z,15.13
2018-03-21T23:18:14.685Z,11.33
2018-03-21T23:20:43.221Z,12.93
2018-03-21T23:23:11.019Z,15.60
2018-03-21T23:25:39.636Z,13.63
2018-03-21T23:28:07.376Z,14.13
2018-03-21T23:30:35.972Z,11.47
2018-03-21T23:33:03.837Z,15.17
2018-03-21T23:35:31.605Z,15.97
2018-03-21T23:37:59.353Z,13.20
2018-03-21T23:40:27.126Z,13.57
2018-03-21T23:42:54.933Z,15.77
2018-03-21T23:45:22.699Z,10.97
2018-03-21T23:47:50.457Z,10.13
2018-03-21T23:50:18.213Z,14.37
2018-03-21T23:52:46.028Z,13.13
2018-03-21T23:55:14.665Z,16.17
2018-03-21T23:57:42.506Z,17.13
